createdAt,value
2022-10-20T00:00:01.366Z,698.20
2022-10-20T00:02:28.289Z,700.30
2022-10-20T00:04:55.247Z,697.70
2022-10-20T00:07:22.145Z,700.83
2022-10-20T00:09:49.070Z,699.30
2022-10-20T00:12:15.943Z,699.23
2022-10-20T00:14:42.838Z,701.33
2022-10-20T00:17:09.726Z,703.03
2022-10-20T00:19:36.608Z,694.77
2022-10-20T00:22:03.478Z,698.00
2022-10-20T00:24:30.374Z,698.80
2022-10-20T00:26:57.257Z,699.00
2022-10-20T00:29:24.335Z,696.33
2022-10-20T00:31:53.995Z,696.10
2022-10-20T00:34:20.916Z,696.67
2022-10-20T00:36:50.444Z,704.83
2022-10-20T00:39:18.333Z,692.87
2022-10-20T00:41:45.211Z,697.87
2022-10-20T00:44:12.096Z,696.00
2022-10-20T00:46:38.989Z,700.87
2022-10-20T00:49:05.876Z,695.47
2022-10-20T00:51:32.773Z,697.93
2022-10-20T00:53:59.688Z,692.70
2022-10-20T00:56:26.568Z,696.97
2022-10-20T00:58:53.460Z,697.80
2022-10-20T01:01:20.402Z,705.03
2022-10-20T01:03:47.342Z,698.07
2022-10-20T01:06:14.279Z,700.80
2022-10-20T01:08:41.313Z,699.90
2022-10-20T01:11:08.251Z,699.93
2022-10-20T01:13:35.153Z,700.23
2022-10-20T01:16:02.068Z,694.83
2022-10-20T01:18:28.975Z,702.27
2022-10-20T01:20:55.900Z,703.13
2022-10-20T01:23:22.780Z,695.10
2022-10-20T01:25:49.681Z,692.03
2022-10-20T01:28:16.560Z,695.00
2022-10-20T01:30:43.462Z,696.90
2022-10-20T01:33:10.333Z,702.83
2022-10-20T01:35:37.235Z,695.83
2022-10-20T01:38:04.129Z,691.70
2022-10-20T01:40:31.033Z,693.43
2022-10-20T01:42:57.928Z,696.10
2022-10-20T01:45:24.815Z,697.70
2022-10-20T01:47:51.693Z,701.27
2022-10-20T01:50:18.604Z,697.77
2022-10-20T01:52:45.501Z,699.30
2022-10-20T01:55:12.434Z,699.10
2022-10-20T09:10:45.057Z,691.67
2022-10-20T09:13:11.941Z,693.23
2022-10-20T09:15:38.843Z,692.60
2022-10-20T09:18:05.732Z,698.63
2022-10-20T09:20:32.660Z,698.87
2022-10-20T09:23:01.321Z,699.37
2022-10-20T09:25:31.143Z,697.43
2022-10-20T09:27:58.061Z,691.67
2022-10-20T09:30:24.978Z,692.13
2022-10-20T09:32:51.910Z,692.33
2022-10-20T09:35:18.858Z,700.73
2022-10-20T09:37:45.759Z,694.93
2022-10-20T09:40:12.674Z,693.73
2022-10-20T09:42:39.806Z,687.37
2022-10-20T09:45:06.781Z,691.77
2022-10-20T09:47:33.686Z,690.40
2022-10-20T09:50:01.068Z,696.33
2022-10-20T09:52:28.310Z,694.50
2022-10-20T09:54:55.211Z,690.73
2022-10-20T09:57:22.081Z,689.77
2022-10-20T09:59:48.975Z,686.80
2022-10-20T10:02:18.872Z,690.53
2022-10-20T10:04:45.785Z,690.20
2022-10-20T10:07:12.705Z,688.47
2022-10-20T10:09:39.636Z,687.63
2022-10-20T10:12:06.513Z,692.87
2022-10-20T10:14:33.423Z,687.80
2022-10-20T10:17:00.326Z,694.23
2022-10-20T10:19:27.252Z,689.20
2022-10-20T10:21:54.151Z,691.23
2022-10-20T10:24:21.068Z,693.77
2022-10-20T10:26:47.967Z,690.80
2022-10-20T10:29:14.862Z,686.83
2022-10-20T10:31:41.775Z,690.87
2022-10-20T10:34:08.691Z,689.70
2022-10-20T10:36:35.654Z,687.47
2022-10-20T10:39:02.588Z,693.40
2022-10-20T10:41:29.515Z,693.93
2022-10-20T10:43:56.495Z,687.30
2022-10-20T10:46:23.401Z,684.30
2022-10-20T10:48:50.294Z,689.53
2022-10-20T10:51:17.278Z,689.23
2022-10-20T10:53:44.146Z,696.17
2022-10-20T10:56:11.121Z,686.77
2022-10-20T13:41:24.220Z,688.53
2022-10-20T13:43:55.248Z,697.60
2022-10-20T13:46:24.737Z,690.80
2022-10-20T13:48:51.674Z,693.97
2022-10-20T13:51:20.667Z,689.20
2022-10-20T13:53:47.932Z,688.50
2022-10-20T13:56:14.828Z,688.20
2022-10-20T13:58:41.700Z,687.07
2022-10-20T14:01:08.652Z,689.27
2022-10-20T14:03:35.598Z,685.63
2022-10-20T14:06:02.555Z,689.73
2022-10-20T14:08:29.602Z,693.27
2022-10-20T14:10:56.595Z,687.37
2022-10-20T14:13:23.512Z,697.83
2022-10-20T14:15:50.446Z,683.97
2022-10-20T14:18:17.375Z,691.13
2022-10-20T14:20:44.304Z,686.53
2022-10-20T14:23:11.191Z,686.83
2022-10-20T14:25:38.131Z,689.63
2022-10-20T14:28:06.770Z,692.13
2022-10-20T14:30:37.306Z,685.63
2022-10-20T14:33:06.937Z,689.73
2022-10-20T14:35:33.942Z,688.17
2022-10-20T14:38:00.837Z,689.33
2022-10-20T14:40:27.734Z,683.50
2022-10-20T14:42:54.683Z,684.67
2022-10-20T14:45:21.663Z,686.13
2022-10-20T14:47:48.632Z,688.87
2022-10-20T14:50:15.584Z,683.30
2022-10-20T14:52:42.459Z,689.03
2022-10-20T14:55:09.371Z,686.27
2022-10-20T14:57:36.322Z,693.57
2022-10-20T15:00:03.454Z,685.87
